sensor_id;sensor_type;location;lat;lon;timestamp;P1;durP1;ratioP1;P2;durP2;ratioP2
64387;SDS011;50709;52.648;4.764;2024-03-29T00:00:44;5.93;;;2.00;;
64387;SDS011;50709;52.648;4.764;2024-03-29T00:03:09;5.63;;;1.80;;
64387;SDS011;50709;52.648;4.764;2024-03-29T00:05:35;4.60;;;1.85;;
64387;SDS011;50709;52.648;4.764;2024-03-29T00:08:02;3.35;;;1.55;;
64387;SDS011;50709;52.648;4.764;2024-03-29T00:10:30;5.25;;;1.55;;
64387;SDS011;50709;52.648;4.764;2024-03-29T00:12:56;6.50;;;1.95;;
64387;SDS011;50709;52.648;4.764;2024-03-29T00:15:22;5.75;;;1.88;;
64387;SDS011;50709;52.648;4.764;2024-03-29T00:17:47;6.13;;;2.05;;
64387;SDS011;50709;52.648;4.764;2024-03-29T00:20:12;7.35;;;2.05;;
64387;SDS011;50709;52.648;4.764;2024-03-29T00:22:38;5.63;;;1.85;;
64387;SDS011;50709;52.648;4.764;2024-03-29T00:25:03;5.88;;;1.63;;
64387;SDS011;50709;52.648;4.764;2024-03-29T00:27:29;8.07;;;2.15;;
64387;SDS011;50709;52.648;4.764;2024-03-29T00:29:55;5.38;;;1.80;;
64387;SDS011;50709;52.648;4.764;2024-03-29T00:32:21;7.10;;;1.90;;
64387;SDS011;50709;52.648;4.764;2024-03-29T00:34:51;5.03;;;1.58;;
64387;SDS011;50709;52.648;4.764;2024-03-29T00:37:18;4.30;;;1.63;;
64387;SDS011;50709;52.648;4.764;2024-03-29T00:39:44;4.13;;;1.75;;
64387;SDS011;50709;52.648;4.764;2024-03-29T00:42:09;8.00;;;2.10;;
64387;SDS011;50709;52.648;4.764;2024-03-29T00:44:37;6.57;;;2.00;;
64387;SDS011;50709;52.648;4.764;2024-03-29T00:47:04;4.43;;;1.80;;
64387;SDS011;50709;52.648;4.764;2024-03-29T00:49:29;7.78;;;2.00;;
64387;SDS011;50709;52.648;4.764;2024-03-29T00:51:55;7.57;;;2.03;;
64387;SDS011;50709;52.648;4.764;2024-03-29T00:54:21;6.30;;;2.00;;
64387;SDS011;50709;52.648;4.764;2024-03-29T00:56:48;4.72;;;1.77;;
64387;SDS011;50709;52.648;4.764;2024-03-29T00:59:14;8.68;;;2.10;;
64387;SDS011;50709;52.648;4.764;2024-03-29T01:01:39;6.53;;;1.90;;
64387;SDS011;50709;52.648;4.764;2024-03-29T01:04:04;4.25;;;1.95;;
64387;SDS011;50709;52.648;4.764;2024-03-29T01:06:30;9.85;;;2.38;;
64387;SDS011;50709;52.648;4.764;2024-03-29T01:08:55;6.10;;;1.83;;
64387;SDS011;50709;52.648;4.764;2024-03-29T01:11:21;5.43;;;1.85;;
64387;SDS011;50709;52.648;4.764;2024-03-29T01:13:46;7.85;;;2.20;;
64387;SDS011;50709;52.648;4.764;2024-03-29T01:16:11;3.83;;;1.80;;
64387;SDS011;50709;52.648;4.764;2024-03-29T01:18:37;4.22;;;1.95;;
64387;SDS011;50709;52.648;4.764;2024-03-29T01:21:02;3.80;;;1.70;;
64387;SDS011;50709;52.648;4.764;2024-03-29T01:23:27;4.90;;;1.70;;
64387;SDS011;50709;52.648;4.764;2024-03-29T01:25:53;4.97;;;1.77;;
64387;SDS011;50709;52.648;4.764;2024-03-29T01:28:18;7.00;;;1.80;;
64387;SDS011;50709;52.648;4.764;2024-03-29T01:30:50;5.47;;;1.70;;
64387;SDS011;50709;52.648;4.764;2024-03-29T01:33:17;4.07;;;1.98;;
64387;SDS011;50709;52.648;4.764;2024-03-29T01:35:42;4.50;;;1.88;;
64387;SDS011;50709;52.648;4.764;2024-03-29T01:38:07;5.70;;;2.20;;
64387;SDS011;50709;52.648;4.764;2024-03-29T01:40:33;4.57;;;1.70;;
64387;SDS011;50709;52.648;4.764;2024-03-29T01:43:00;4.22;;;1.70;;
64387;SDS011;50709;52.648;4.764;2024-03-29T01:45:26;8.70;;;2.22;;
64387;SDS011;50709;52.648;4.764;2024-03-29T01:47:51;3.88;;;1.92;;
64387;SDS011;50709;52.648;4.764;2024-03-29T01:50:17;5.43;;;2.00;;
64387;SDS011;50709;52.648;4.764;2024-03-29T01:52:42;4.25;;;1.85;;
64387;SDS011;50709;52.648;4.764;2024-03-29T01:55:08;4.88;;;2.03;;
64387;SDS011;50709;52.648;4.764;2024-03-29T01:57:34;7.07;;;2.20;;
64387;SDS011;50709;52.648;4.764;2024-03-29T01:59:59;4.00;;;1.45;;
64387;SDS011;50709;52.648;4.764;2024-03-29T02:02:25;4.43;;;1.40;;
64387;SDS011;50709;52.648;4.764;2024-03-29T02:04:51;4.80;;;1.83;;
64387;SDS011;50709;52.648;4.764;2024-03-29T02:07:16;7.43;;;1.70;;
64387;SDS011;50709;52.648;4.764;2024-03-29T02:09:42;4.80;;;1.85;;
64387;SDS011;50709;52.648;4.764;2024-03-29T02:12:07;3.65;;;1.63;;
64387;SDS011;50709;52.648;4.764;2024-03-29T02:14:33;4.93;;;1.60;;
64387;SDS011;50709;52.648;4.764;2024-03-29T02:16:58;5.82;;;2.13;;
64387;SDS011;50709;52.648;4.764;2024-03-29T02:19:24;4.97;;;1.65;;
64387;SDS011;50709;52.648;4.764;2024-03-29T02:21:49;4.45;;;1.77;;
64387;SDS011;50709;52.648;4.764;2024-03-29T02:24:20;6.35;;;1.70;;
64387;SDS011;50709;52.648;4.764;2024-03-29T02:26:45;6.05;;;1.77;;
64387;SDS011;50709;52.648;4.764;2024-03-29T02:29:12;6.03;;;1.98;;
64387;SDS011;50709;52.648;4.764;2024-03-29T02:31:37;5.43;;;1.80;;
64387;SDS011;50709;52.648;4.764;2024-03-29T02:34:03;7.15;;;2.13;;
64387;SDS011;50709;52.648;4.764;2024-03-29T02:36:28;4.38;;;1.65;;
64387;SDS011;50709;52.648;4.764;2024-03-29T02:38:54;3.45;;;1.60;;
64387;SDS011;50709;52.648;4.764;2024-03-29T02:41:19;5.60;;;2.13;;
64387;SDS011;50709;52.648;4.764;2024-03-29T02:43:44;5.47;;;2.10;;
64387;SDS011;50709;52.648;4.764;2024-03-29T02:46:10;5.78;;;1.88;;
64387;SDS011;50709;52.648;4.764;2024-03-29T02:48:35;6.65;;;2.25;;
64387;SDS011;50709;52.648;4.764;2024-03-29T02:51:01;4.28;;;1.58;;
64387;SDS011;50709;52.648;4.764;2024-03-29T02:53:26;5.13;;;1.98;;
64387;SDS011;50709;52.648;4.764;2024-03-29T02:55:52;7.07;;;1.83;;
64387;SDS011;50709;52.648;4.764;2024-03-29T02:58:17;7.13;;;2.10;;
64387;SDS011;50709;52.648;4.764;2024-03-29T03:00:42;3.70;;;1.65;;
64387;SDS011;50709;52.648;4.764;2024-03-29T03:03:08;4.93;;;1.80;;
64387;SDS011;50709;52.648;4.764;2024-03-29T03:05:33;6.25;;;2.15;;
64387;SDS011;50709;52.648;4.764;2024-03-29T03:07:58;8.48;;;2.00;;
64387;SDS011;50709;52.648;4.764;2024-03-29T03:10:48;5.28;;;1.80;;
64387;SDS011;50709;52.648;4.764;2024-03-29T03:13:27;4.70;;;1.80;;
64387;SDS011;50709;52.648;4.764;2024-03-29T03:15:55;6.32;;;2.10;;
64387;SDS011;50709;52.648;4.764;2024-03-29T03:18:21;8.00;;;2.22;;
64387;SDS011;50709;52.648;4.764;2024-03-29T03:20:55;4.95;;;1.98;;
64387;SDS011;50709;52.648;4.764;2024-03-29T03:23:24;5.97;;;2.03;;
64387;SDS011;50709;52.648;4.764;2024-03-29T03:25:56;6.13;;;2.22;;
64387;SDS011;50709;52.648;4.764;2024-03-29T03:28:26;5.90;;;1.95;;
64387;SDS011;50709;52.648;4.764;2024-03-29T03:30:52;6.93;;;2.15;;
64387;SDS011;50709;52.648;4.764;2024-03-29T03:33:18;8.18;;;2.63;;
64387;SDS011;50709;52.648;4.764;2024-03-29T03:35:44;7.18;;;2.33;;
64387;SDS011;50709;52.648;4.764;2024-03-29T03:38:10;4.95;;;1.90;;
64387;SDS011;50709;52.648;4.764;2024-03-29T03:40:36;6.43;;;1.88;;
64387;SDS011;50709;52.648;4.764;2024-03-29T03:43:02;3.20;;;1.45;;
64387;SDS011;50709;52.648;4.764;2024-03-29T03:45:28;5.20;;;1.73;;
64387;SDS011;50709;52.648;4.764;2024-03-29T03:47:59;5.10;;;2.00;;
64387;SDS011;50709;52.648;4.764;2024-03-29T03:50:24;5.18;;;1.92;;
64387;SDS011;50709;52.648;4.764;2024-03-29T03:52:50;6.32;;;1.65;;
64387;SDS011;50709;52.648;4.764;2024-03-29T03:55:15;6.40;;;1.85;;
64387;SDS011;50709;52.648;4.764;2024-03-29T03:57:41;5.10;;;1.98;;
64387;SDS011;50709;52.648;4.764;2024-03-29T04:00:06;3.97;;;1.80;;
64387;SDS011;50709;52.648;4.764;2024-03-29T04:02:32;5.90;;;1.88;;
64387;SDS011;50709;52.648;4.764;2024-03-29T04:04:57;4.47;;;1.90;;
64387;SDS011;50709;52.648;4.764;2024-03-29T04:07:22;5.75;;;1.70;;
64387;SDS011;50709;52.648;4.764;2024-03-29T04:09:51;3.83;;;1.85;;
64387;SDS011;50709;52.648;4.764;2024-03-29T04:12:17;4.75;;;1.85;;
64387;SDS011;50709;52.648;4.764;2024-03-29T04:14:43;4.90;;;2.28;;
64387;SDS011;50709;52.648;4.764;2024-03-29T04:17:08;4.43;;;1.88;;
64387;SDS011;50709;52.648;4.764;2024-03-29T04:19:33;3.33;;;1.92;;
64387;SDS011;50709;52.648;4.764;2024-03-29T04:21:59;4.95;;;2.20;;
64387;SDS011;50709;52.648;4.764;2024-03-29T04:24:24;4.82;;;1.98;;
64387;SDS011;50709;52.648;4.764;2024-03-29T04:26:49;4.50;;;2.10;;
64387;SDS011;50709;52.648;4.764;2024-03-29T04:29:15;4.53;;;1.52;;
64387;SDS011;50709;52.648;4.764;2024-03-29T04:31:41;4.05;;;1.63;;
64387;SDS011;50709;52.648;4.764;2024-03-29T04:34:07;4.40;;;1.70;;
64387;SDS011;50709;52.648;4.764;2024-03-29T04:36:32;4.35;;;1.77;;
64387;SDS011;50709;52.648;4.764;2024-03-29T04:38:57;2.35;;;1.30;;
64387;SDS011;50709;52.648;4.764;2024-03-29T04:41:23;4.32;;;1.33;;
64387;SDS011;50709;52.648;4.764;2024-03-29T04:43:49;4.38;;;1.60;;
64387;SDS011;50709;52.648;4.764;2024-03-29T04:46:15;4.03;;;1.33;;
64387;SDS011;50709;52.648;4.764;2024-03-29T04:48:41;3.95;;;1.70;;
64387;SDS011;50709;52.648;4.764;2024-03-29T04:51:08;3.92;;;1.73;;
64387;SDS011;50709;52.648;4.764;2024-03-29T04:53:37;4.38;;;1.80;;
64387;SDS011;50709;52.648;4.764;2024-03-29T04:56:03;5.13;;;1.52;;
64387;SDS011;50709;52.648;4.764;2024-03-29T04:58:29;4.28;;;1.67;;
64387;SDS011;50709;52.648;4.764;2024-03-29T05:00:54;3.65;;;1.80;;
64387;SDS011;50709;52.648;4.764;2024-03-29T05:03:20;4.10;;;1.85;;
64387;SDS011;50709;52.648;4.764;2024-03-29T05:05:47;2.85;;;1.30;;
64387;SDS011;50709;52.648;4.764;2024-03-29T05:08:13;2.33;;;1.27;;
64387;SDS011;50709;52.648;4.764;2024-03-29T05:10:39;5.28;;;1.52;;
64387;SDS011;50709;52.648;4.764;2024-03-29T05:13:05;3.40;;;1.60;;
64387;SDS011;50709;52.648;4.764;2024-03-29T05:15:30;2.97;;;1.58;;
64387;SDS011;50709;52.648;4.764;2024-03-29T05:17:58;2.35;;;1.35;;
64387;SDS011;50709;52.648;4.764;2024-03-29T05:20:24;3.88;;;1.40;;
64387;SDS011;50709;52.648;4.764;2024-03-29T05:22:49;2.33;;;1.27;;
64387;SDS011;50709;52.648;4.764;2024-03-29T05:25:15;3.67;;;1.48;;
64387;SDS011;50709;52.648;4.764;2024-03-29T05:27:42;1.85;;;1.08;;
64387;SDS011;50709;52.648;4.764;2024-03-29T05:30:07;3.75;;;1.40;;
64387;SDS011;50709;52.648;4.764;2024-03-29T05:32:34;2.20;;;1.42;;
64387;SDS011;50709;52.648;4.764;2024-03-29T05:35:00;3.47;;;1.45;;
64387;SDS011;50709;52.648;4.764;2024-03-29T05:37:25;3.03;;;1.50;;
64387;SDS011;50709;52.648;4.764;2024-03-29T05:39:51;3.17;;;1.50;;
64387;SDS011;50709;52.648;4.764;2024-03-29T05:42:30;5.10;;;1.70;;
64387;SDS011;50709;52.648;4.764;2024-03-29T05:44:57;4.10;;;1.50;;
64387;SDS011;50709;52.648;4.764;2024-03-29T05:47:23;2.13;;;1.60;;
64387;SDS011;50709;52.648;4.764;2024-03-29T05:49:48;3.45;;;1.48;;
64387;SDS011;50709;52.648;4.764;2024-03-29T05:52:14;4.20;;;1.63;;
64387;SDS011;50709;52.648;4.764;2024-03-29T05:54:42;5.13;;;2.17;;
64387;SDS011;50709;52.648;4.764;2024-03-29T05:57:09;2.55;;;1.48;;
64387;SDS011;50709;52.648;4.764;2024-03-29T05:59:35;2.33;;;1.20;;
64387;SDS011;50709;52.648;4.764;2024-03-29T06:02:01;4.15;;;2.92;;
64387;SDS011;50709;52.648;4.764;2024-03-29T06:04:26;3.33;;;1.70;;
64387;SDS011;50709;52.648;4.764;2024-03-29T06:07:01;5.03;;;2.38;;
64387;SDS011;50709;52.648;4.764;2024-03-29T06:09:28;5.60;;;2.30;;
64387;SDS011;50709;52.648;4.764;2024-03-29T06:11:54;4.82;;;1.70;;
64387;SDS011;50709;52.648;4.764;2024-03-29T06:14:20;3.40;;;1.60;;
64387;SDS011;50709;52.648;4.764;2024-03-29T06:17:05;3.40;;;1.40;;
64387;SDS011;50709;52.648;4.764;2024-03-29T06:19:52;2.72;;;1.17;;
64387;SDS011;50709;52.648;4.764;2024-03-29T06:22:22;2.08;;;1.27;;
64387;SDS011;50709;52.648;4.764;2024-03-29T06:24:49;2.25;;;1.33;;
64387;SDS011;50709;52.648;4.764;2024-03-29T06:27:17;1.80;;;1.20;;
64387;SDS011;50709;52.648;4.764;2024-03-29T06:29:44;1.55;;;1.17;;
64387;SDS011;50709;52.648;4.764;2024-03-29T06:32:10;2.22;;;1.17;;
64387;SDS011;50709;52.648;4.764;2024-03-29T06:34:35;2.63;;;1.27;;
64387;SDS011;50709;52.648;4.764;2024-03-29T06:37:01;2.92;;;1.60;;
64387;SDS011;50709;52.648;4.764;2024-03-29T06:39:27;3.10;;;1.42;;
64387;SDS011;50709;52.648;4.764;2024-03-29T06:41:52;2.97;;;1.45;;
64387;SDS011;50709;52.648;4.764;2024-03-29T06:44:17;1.40;;;1.05;;
64387;SDS011;50709;52.648;4.764;2024-03-29T06:46:43;2.75;;;1.30;;
64387;SDS011;50709;52.648;4.764;2024-03-29T06:49:08;4.68;;;1.58;;
64387;SDS011;50709;52.648;4.764;2024-03-29T06:51:33;1.52;;;1.20;;
64387;SDS011;50709;52.648;4.764;2024-03-29T06:53:59;1.85;;;1.15;;
64387;SDS011;50709;52.648;4.764;2024-03-29T06:56:24;1.80;;;0.93;;
64387;SDS011;50709;52.648;4.764;2024-03-29T06:58:50;2.75;;;1.23;;
64387;SDS011;50709;52.648;4.764;2024-03-29T07:01:15;2.17;;;1.52;;
64387;SDS011;50709;52.648;4.764;2024-03-29T07:03:40;2.30;;;1.40;;
64387;SDS011;50709;52.648;4.764;2024-03-29T07:06:06;2.53;;;1.10;;
64387;SDS011;50709;52.648;4.764;2024-03-29T07:08:31;2.55;;;0.90;;
64387;SDS011;50709;52.648;4.764;2024-03-29T07:11:00;3.63;;;1.60;;
64387;SDS011;50709;52.648;4.764;2024-03-29T07:13:27;2.40;;;1.10;;
64387;SDS011;50709;52.648;4.764;2024-03-29T07:16:00;1.88;;;1.20;;
64387;SDS011;50709;52.648;4.764;2024-03-29T07:18:26;2.70;;;1.45;;
64387;SDS011;50709;52.648;4.764;2024-03-29T07:20:52;3.05;;;1.25;;
64387;SDS011;50709;52.648;4.764;2024-03-29T07:23:17;2.40;;;1.40;;
64387;SDS011;50709;52.648;4.764;2024-03-29T07:25:57;2.88;;;1.60;;
64387;SDS011;50709;52.648;4.764;2024-03-29T07:28:24;2.78;;;1.63;;
64387;SDS011;50709;52.648;4.764;2024-03-29T07:30:50;4.03;;;1.80;;
64387;SDS011;50709;52.648;4.764;2024-03-29T07:33:15;5.50;;;1.90;;
64387;SDS011;50709;52.648;4.764;2024-03-29T07:35:41;5.63;;;2.00;;
64387;SDS011;50709;52.648;4.764;2024-03-29T07:38:07;4.38;;;2.20;;
64387;SDS011;50709;52.648;4.764;2024-03-29T07:40:32;3.28;;;1.95;;
64387;SDS011;50709;52.648;4.764;2024-03-29T07:42:58;5.07;;;1.90;;
64387;SDS011;50709;52.648;4.764;2024-03-29T07:45:25;3.78;;;1.60;;
64387;SDS011;50709;52.648;4.764;2024-03-29T07:47:50;5.07;;;1.90;;
64387;SDS011;50709;52.648;4.764;2024-03-29T07:50:17;3.85;;;1.90;;
64387;SDS011;50709;52.648;4.764;2024-03-29T07:52:46;4.28;;;2.03;;
64387;SDS011;50709;52.648;4.764;2024-03-29T07:55:11;5.60;;;2.30;;
64387;SDS011;50709;52.648;4.764;2024-03-29T07:57:37;4.72;;;2.10;;
64387;SDS011;50709;52.648;4.764;2024-03-29T08:00:03;3.53;;;1.80;;
64387;SDS011;50709;52.648;4.764;2024-03-29T08:02:32;7.00;;;2.15;;
64387;SDS011;50709;52.648;4.764;2024-03-29T08:04:57;5.78;;;2.45;;
64387;SDS011;50709;52.648;4.764;2024-03-29T08:07:23;5.32;;;2.40;;
64387;SDS011;50709;52.648;4.764;2024-03-29T08:09:49;3.13;;;1.65;;
64387;SDS011;50709;52.648;4.764;2024-03-29T08:12:15;4.25;;;1.92;;
64387;SDS011;50709;52.648;4.764;2024-03-29T08:14:40;3.22;;;1.90;;
64387;SDS011;50709;52.648;4.764;2024-03-29T08:17:06;2.83;;;1.75;;
64387;SDS011;50709;52.648;4.764;2024-03-29T08:19:34;4.05;;;2.08;;
64387;SDS011;50709;52.648;4.764;2024-03-29T08:22:00;3.67;;;1.73;;
64387;SDS011;50709;52.648;4.764;2024-03-29T08:24:26;4.50;;;2.00;;
64387;SDS011;50709;52.648;4.764;2024-03-29T08:26:52;3.78;;;2.17;;
64387;SDS011;50709;52.648;4.764;2024-03-29T08:29:17;4.45;;;1.95;;
64387;SDS011;50709;52.648;4.764;2024-03-29T08:31:42;3.00;;;1.50;;
64387;SDS011;50709;52.648;4.764;2024-03-29T08:34:08;4.10;;;1.77;;
64387;SDS011;50709;52.648;4.764;2024-03-29T08:36:35;4.80;;;1.58;;
64387;SDS011;50709;52.648;4.764;2024-03-29T08:39:01;3.13;;;1.40;;
64387;SDS011;50709;52.648;4.764;2024-03-29T08:41:27;4.47;;;1.88;;
64387;SDS011;50709;52.648;4.764;2024-03-29T08:43:52;5.30;;;1.80;;
64387;SDS011;50709;52.648;4.764;2024-03-29T08:46:18;4.38;;;1.60;;
64387;SDS011;50709;52.648;4.764;2024-03-29T08:48:43;3.25;;;1.67;;
64387;SDS011;50709;52.648;4.764;2024-03-29T08:51:09;3.75;;;2.10;;
64387;SDS011;50709;52.648;4.764;2024-03-29T08:53:35;5.38;;;2.00;;
64387;SDS011;50709;52.648;4.764;2024-03-29T08:56:00;2.28;;;1.50;;
64387;SDS011;50709;52.648;4.764;2024-03-29T08:58:26;2.85;;;1.90;;
64387;SDS011;50709;52.648;4.764;2024-03-29T09:00:55;2.40;;;1.50;;
64387;SDS011;50709;52.648;4.764;2024-03-29T09:03:24;3.47;;;1.88;;
64387;SDS011;50709;52.648;4.764;2024-03-29T09:05:49;3.75;;;1.92;;
64387;SDS011;50709;52.648;4.764;2024-03-29T09:08:16;2.75;;;1.73;;
64387;SDS011;50709;52.648;4.764;2024-03-29T09:10:44;2.97;;;1.70;;
64387;SDS011;50709;52.648;4.764;2024-03-29T09:13:10;3.13;;;1.63;;
64387;SDS011;50709;52.648;4.764;2024-03-29T09:15:35;4.18;;;1.75;;
64387;SDS011;50709;52.648;4.764;2024-03-29T09:18:01;4.32;;;1.70;;
64387;SDS011;50709;52.648;4.764;2024-03-29T09:20:34;3.97;;;1.70;;
64387;SDS011;50709;52.648;4.764;2024-03-29T09:23:00;5.55;;;1.73;;
64387;SDS011;50709;52.648;4.764;2024-03-29T09:25:25;3.33;;;1.80;;
64387;SDS011;50709;52.648;4.764;2024-03-29T09:27:51;2.80;;;1.92;;
64387;SDS011;50709;52.648;4.764;2024-03-29T09:30:16;5.22;;;1.98;;
64387;SDS011;50709;52.648;4.764;2024-03-29T09:32:43;3.72;;;1.77;;
64387;SDS011;50709;52.648;4.764;2024-03-29T09:35:09;3.33;;;1.92;;
64387;SDS011;50709;52.648;4.764;2024-03-29T09:37:34;4.00;;;1.83;;
64387;SDS011;50709;52.648;4.764;2024-03-29T09:40:03;2.05;;;1.50;;
64387;SDS011;50709;52.648;4.764;2024-03-29T09:42:31;3.83;;;2.22;;
64387;SDS011;50709;52.648;4.764;2024-03-29T09:44:57;3.97;;;2.10;;
64387;SDS011;50709;52.648;4.764;2024-03-29T09:47:24;4.90;;;1.92;;
64387;SDS011;50709;52.648;4.764;2024-03-29T09:49:52;4.18;;;2.00;;
64387;SDS011;50709;52.648;4.764;2024-03-29T09:52:19;3.90;;;2.15;;
64387;SDS011;50709;52.648;4.764;2024-03-29T09:54:45;6.15;;;2.38;;
64387;SDS011;50709;52.648;4.764;2024-03-29T09:57:11;5.43;;;2.30;;
64387;SDS011;50709;52.648;4.764;2024-03-29T09:59:38;4.10;;;1.90;;
64387;SDS011;50709;52.648;4.764;2024-03-29T10:02:04;3.55;;;2.28;;
64387;SDS011;50709;52.648;4.764;2024-03-29T10:04:39;4.22;;;2.30;;
64387;SDS011;50709;52.648;4.764;2024-03-29T10:07:06;3.42;;;2.17;;
64387;SDS011;50709;52.648;4.764;2024-03-29T10:09:32;3.20;;;2.20;;
64387;SDS011;50709;52.648;4.764;2024-03-29T10:12:00;3.10;;;2.00;;
64387;SDS011;50709;52.648;4.764;2024-03-29T10:14:26;4.80;;;2.40;;
64387;SDS011;50709;52.648;4.764;2024-03-29T10:16:52;3.72;;;2.30;;
64387;SDS011;50709;52.648;4.764;2024-03-29T10:19:17;4.45;;;2.45;;
64387;SDS011;50709;52.648;4.764;2024-03-29T10:21:43;3.47;;;2.30;;
64387;SDS011;50709;52.648;4.764;2024-03-29T10:24:12;5.00;;;2.80;;
64387;SDS011;50709;52.648;4.764;2024-03-29T10:26:39;3.65;;;2.42;;
64387;SDS011;50709;52.648;4.764;2024-03-29T10:29:04;5.32;;;2.72;;
64387;SDS011;50709;52.648;4.764;2024-03-29T10:31:33;4.05;;;2.70;;
64387;SDS011;50709;52.648;4.764;2024-03-29T10:34:02;4.65;;;2.53;;
64387;SDS011;50709;52.648;4.764;2024-03-29T10:36:29;5.38;;;2.85;;
64387;SDS011;50709;52.648;4.764;2024-03-29T10:39:00;3.72;;;2.22;;
64387;SDS011;50709;52.648;4.764;2024-03-29T10:41:27;4.30;;;2.38;;
64387;SDS011;50709;52.648;4.764;2024-03-29T10:43:54;4.30;;;2.67;;
64387;SDS011;50709;52.648;4.764;2024-03-29T10:46:22;4.68;;;2.55;;
64387;SDS011;50709;52.648;4.764;2024-03-29T10:48:48;4.78;;;3.22;;
64387;SDS011;50709;52.648;4.764;2024-03-29T10:51:15;4.85;;;2.83;;
64387;SDS011;50709;52.648;4.764;2024-03-29T10:53:41;5.45;;;3.15;;
64387;SDS011;50709;52.648;4.764;2024-03-29T10:56:07;4.45;;;3.05;;
64387;SDS011;50709;52.648;4.764;2024-03-29T10:58:37;4.35;;;2.78;;
64387;SDS011;50709;52.648;4.764;2024-03-29T11:01:09;4.25;;;3.10;;
64387;SDS011;50709;52.648;4.764;2024-03-29T11:03:38;4.32;;;3.10;;
64387;SDS011;50709;52.648;4.764;2024-03-29T11:06:09;5.05;;;3.50;;
64387;SDS011;50709;52.648;4.764;2024-03-29T11:08:37;4.60;;;3.30;;
64387;SDS011;50709;52.648;4.764;2024-03-29T11:11:10;4.50;;;2.85;;
64387;SDS011;50709;52.648;4.764;2024-03-29T11:13:41;4.68;;;3.10;;
64387;SDS011;50709;52.648;4.764;2024-03-29T11:16:08;6.35;;;3.58;;
64387;SDS011;50709;52.648;4.764;2024-03-29T11:18:38;4.90;;;3.30;;
64387;SDS011;50709;52.648;4.764;2024-03-29T11:21:04;4.78;;;3.10;;
64387;SDS011;50709;52.648;4.764;2024-03-29T11:23:33;4.57;;;3.33;;
64387;SDS011;50709;52.648;4.764;2024-03-29T11:25:59;4.55;;;3.10;;
64387;SDS011;50709;52.648;4.764;2024-03-29T11:28:26;4.65;;;3.55;;
64387;SDS011;50709;52.648;4.764;2024-03-29T11:30:56;3.83;;;2.40;;
64387;SDS011;50709;52.648;4.764;2024-03-29T11:33:32;3.55;;;2.38;;
64387;SDS011;50709;52.648;4.764;2024-03-29T11:36:10;5.30;;;2.95;;
64387;SDS011;50709;52.648;4.764;2024-03-29T11:38:37;4.95;;;2.50;;
64387;SDS011;50709;52.648;4.764;2024-03-29T11:41:04;4.70;;;3.20;;
64387;SDS011;50709;52.648;4.764;2024-03-29T11:43:32;4.70;;;3.10;;
64387;SDS011;50709;52.648;4.764;2024-03-29T11:45:59;6.28;;;3.03;;
64387;SDS011;50709;52.648;4.764;2024-03-29T11:48:29;5.60;;;2.42;;
64387;SDS011;50709;52.648;4.764;2024-03-29T11:50:56;6.93;;;2.50;;
64387;SDS011;50709;52.648;4.764;2024-03-29T11:53:22;7.82;;;3.25;;
64387;SDS011;50709;52.648;4.764;2024-03-29T11:55:48;6.57;;;3.08;;
64387;SDS011;50709;52.648;4.764;2024-03-29T11:58:18;5.25;;;3.03;;
64387;SDS011;50709;52.648;4.764;2024-03-29T12:00:44;6.82;;;3.00;;
64387;SDS011;50709;52.648;4.764;2024-03-29T12:03:12;6.47;;;3.15;;
64387;SDS011;50709;52.648;4.764;2024-03-29T12:05:38;5.45;;;2.97;;
64387;SDS011;50709;52.648;4.764;2024-03-29T12:08:04;5.90;;;3.28;;
64387;SDS011;50709;52.648;4.764;2024-03-29T12:10:29;5.75;;;3.42;;
64387;SDS011;50709;52.648;4.764;2024-03-29T12:12:58;6.05;;;3.65;;
64387;SDS011;50709;52.648;4.764;2024-03-29T12:15:23;4.75;;;3.20;;
64387;SDS011;50709;52.648;4.764;2024-03-29T12:18:02;4.88;;;3.30;;
64387;SDS011;50709;52.648;4.764;2024-03-29T12:20:30;5.90;;;3.63;;
64387;SDS011;50709;52.648;4.764;2024-03-29T12:23:00;6.03;;;3.88;;
64387;SDS011;50709;52.648;4.764;2024-03-29T12:25:27;7.45;;;3.70;;
64387;SDS011;50709;52.648;4.764;2024-03-29T12:27:53;5.05;;;3.90;;
64387;SDS011;50709;52.648;4.764;2024-03-29T12:30:18;5.13;;;4.00;;
64387;SDS011;50709;52.648;4.764;2024-03-29T12:32:44;6.53;;;4.47;;
64387;SDS011;50709;52.648;4.764;2024-03-29T12:35:10;6.30;;;4.50;;
64387;SDS011;50709;52.648;4.764;2024-03-29T12:37:36;6.03;;;3.90;;
64387;SDS011;50709;52.648;4.764;2024-03-29T12:40:03;5.57;;;3.97;;
64387;SDS011;50709;52.648;4.764;2024-03-29T12:42:37;7.45;;;3.65;;
64387;SDS011;50709;52.648;4.764;2024-03-29T12:45:03;7.65;;;3.95;;
64387;SDS011;50709;52.648;4.764;2024-03-29T12:47:29;7.57;;;4.10;;
64387;SDS011;50709;52.648;4.764;2024-03-29T12:49:55;5.13;;;3.58;;
64387;SDS011;50709;52.648;4.764;2024-03-29T12:52:21;5.53;;;3.50;;
64387;SDS011;50709;52.648;4.764;2024-03-29T12:54:46;3.92;;;3.15;;
64387;SDS011;50709;52.648;4.764;2024-03-29T12:57:12;4.78;;;3.47;;
64387;SDS011;50709;52.648;4.764;2024-03-29T12:59:37;6.82;;;3.53;;
64387;SDS011;50709;52.648;4.764;2024-03-29T13:02:03;6.68;;;2.90;;
64387;SDS011;50709;52.648;4.764;2024-03-29T13:04:29;6.22;;;3.25;;
64387;SDS011;50709;52.648;4.764;2024-03-29T13:06:55;6.03;;;3.15;;
64387;SDS011;50709;52.648;4.764;2024-03-29T13:09:21;3.95;;;2.92;;
64387;SDS011;50709;52.648;4.764;2024-03-29T13:11:46;3.75;;;2.58;;
64387;SDS011;50709;52.648;4.764;2024-03-29T13:14:11;3.65;;;2.38;;
64387;SDS011;50709;52.648;4.764;2024-03-29T13:16:37;3.47;;;2.45;;
64387;SDS011;50709;52.648;4.764;2024-03-29T13:19:02;3.83;;;2.92;;
64387;SDS011;50709;52.648;4.764;2024-03-29T13:21:28;2.83;;;2.38;;
64387;SDS011;50709;52.648;4.764;2024-03-29T13:23:54;7.00;;;3.08;;
64387;SDS011;50709;52.648;4.764;2024-03-29T13:26:19;4.28;;;2.78;;
64387;SDS011;50709;52.648;4.764;2024-03-29T13:28:45;4.45;;;2.90;;
64387;SDS011;50709;52.648;4.764;2024-03-29T13:31:10;5.90;;;3.25;;
64387;SDS011;50709;52.648;4.764;2024-03-29T13:33:35;4.78;;;2.90;;
64387;SDS011;50709;52.648;4.764;2024-03-29T13:36:01;4.82;;;3.17;;
64387;SDS011;50709;52.648;4.764;2024-03-29T13:38:27;6.10;;;3.20;;
64387;SDS011;50709;52.648;4.764;2024-03-29T13:40:52;5.70;;;3.45;;
64387;SDS011;50709;52.648;4.764;2024-03-29T13:43:19;5.07;;;3.00;;
64387;SDS011;50709;52.648;4.764;2024-03-29T13:45:47;5.43;;;2.90;;
64387;SDS011;50709;52.648;4.764;2024-03-29T13:48:15;3.75;;;3.10;;
64387;SDS011;50709;52.648;4.764;2024-03-29T13:50:41;4.40;;;2.55;;
64387;SDS011;50709;52.648;4.764;2024-03-29T13:53:06;4.30;;;2.78;;
64387;SDS011;50709;52.648;4.764;2024-03-29T13:55:32;6.60;;;3.17;;
64387;SDS011;50709;52.648;4.764;2024-03-29T13:57:57;6.25;;;2.92;;
64387;SDS011;50709;52.648;4.764;2024-03-29T14:00:24;3.90;;;2.55;;
64387;SDS011;50709;52.648;4.764;2024-03-29T14:02:49;5.82;;;3.05;;
64387;SDS011;50709;52.648;4.764;2024-03-29T14:05:15;4.38;;;2.70;;
64387;SDS011;50709;52.648;4.764;2024-03-29T14:07:40;5.57;;;2.05;;
64387;SDS011;50709;52.648;4.764;2024-03-29T14:10:06;3.75;;;2.00;;
64387;SDS011;50709;52.648;4.764;2024-03-29T14:12:32;4.30;;;2.40;;
64387;SDS011;50709;52.648;4.764;2024-03-29T14:14:59;3.72;;;2.22;;
64387;SDS011;50709;52.648;4.764;2024-03-29T14:17:25;3.85;;;2.38;;
64387;SDS011;50709;52.648;4.764;2024-03-29T14:19:53;3.78;;;2.38;;
64387;SDS011;50709;52.648;4.764;2024-03-29T14:22:19;7.30;;;2.78;;
64387;SDS011;50709;52.648;4.764;2024-03-29T14:24:45;4.40;;;2.45;;
64387;SDS011;50709;52.648;4.764;2024-03-29T14:27:11;4.43;;;2.47;;
64387;SDS011;50709;52.648;4.764;2024-03-29T14:29:37;5.15;;;2.90;;
64387;SDS011;50709;52.648;4.764;2024-03-29T14:32:03;4.88;;;2.95;;
64387;SDS011;50709;52.648;4.764;2024-03-29T14:34:29;2.72;;;1.98;;
64387;SDS011;50709;52.648;4.764;2024-03-29T14:37:02;4.72;;;2.50;;
64387;SDS011;50709;52.648;4.764;2024-03-29T14:39:28;3.53;;;2.53;;
64387;SDS011;50709;52.648;4.764;2024-03-29T14:41:53;4.07;;;2.50;;
64387;SDS011;50709;52.648;4.764;2024-03-29T14:44:19;3.25;;;1.98;;